Time;durP1;ratioP1;P1;durP2;ratioP2;P2;SDS_P1;SDS_P2;PMS_P1;PMS_P2;Temp;Humidity;BMP_temperature;BMP_pressure;BME280_temperature;BME280_humidity;BME280_pressure;Samples;Min_cycle;Max_cycle;Signal;HPM_P1;HPM_P2
2023/04/23 00:00:31;;;;;;;35.13;20.95;;;10.00;99.90;;;;;;4898858;29;20028;-74
2023/04/23 00:06:42;;;;;;;29.77;19.17;;;10.00;99.90;;;;;;4834326;23;20469;-76
2023/04/23 00:09:10;;;;;;;35.40;21.90;;;10.00;99.90;;;;;;4932828;29;20028;-78
2023/04/23 00:11:36;;;;;;;33.95;20.80;;;9.90;99.90;;;;;;4936627;29;20111;-76
2023/04/23 00:14:03;;;;;;;40.50;23.02;;;9.70;99.90;;;;;;4936793;29;20034;-75
2023/04/23 00:16:29;;;;;;;42.13;26.08;;;9.70;99.90;;;;;;4936680;29;20030;-78
2023/04/23 00:18:55;;;;;;;37.35;23.52;;;9.70;99.90;;;;;;4936644;29;20024;-78
2023/04/23 00:21:20;;;;;;;39.80;26.38;;;9.80;99.90;;;;;;4936214;29;20424;-73
2023/04/23 00:23:46;;;;;;;35.47;22.33;;;9.80;99.90;;;;;;4936551;29;20106;-75
2023/04/23 00:26:12;;;;;;;38.05;22.58;;;9.90;99.90;;;;;;4935994;29;20034;-73
2023/04/23 00:28:38;;;;;;;32.15;21.33;;;10.00;99.90;;;;;;4935747;29;20075;-78
2023/04/23 00:31:03;;;;;;;29.30;18.38;;;10.00;99.90;;;;;;4918911;29;20507;-78
2023/04/23 00:33:29;;;;;;;29.48;19.73;;;10.00;99.90;;;;;;4918889;29;20059;-79
2023/04/23 00:35:55;;;;;;;26.02;17.70;;;10.00;99.90;;;;;;4936283;29;20118;-78
2023/04/23 00:38:21;;;;;;;28.30;19.42;;;10.00;99.90;;;;;;4935897;29;20543;-78
2023/04/23 00:40:47;;;;;;;32.75;20.08;;;10.10;99.90;;;;;;4936232;29;20059;-77
2023/04/23 00:43:14;;;;;;;35.72;22.48;;;10.10;99.90;;;;;;4936436;29;20028;-74
2023/04/23 00:45:40;;;;;;;29.45;18.52;;;9.90;99.90;;;;;;4936018;29;20027;-78
2023/04/23 00:48:07;;;;;;;31.92;18.77;;;10.00;99.90;;;;;;4935833;29;20067;-77
2023/04/23 00:50:32;;;;;;;31.27;20.38;;;10.00;99.90;;;;;;4935841;29;20031;-74
2023/04/23 00:52:59;;;;;;;27.25;18.13;;;10.00;99.90;;;;;;4923192;29;20041;-79
2023/04/23 00:55:25;;;;;;;29.88;19.00;;;10.00;99.90;;;;;;4934479;29;20384;-77
2023/04/23 00:57:51;;;;;;;29.75;19.33;;;9.90;99.90;;;;;;4935451;29;20032;-77
2023/04/23 01:00:19;;;;;;;30.65;18.63;;;9.90;99.90;;;;;;4935711;29;20427;-77
2023/04/23 01:02:47;;;;;;;40.53;18.02;;;10.00;99.90;;;;;;4935822;29;20475;-75
2023/04/23 01:05:16;;;;;;;26.67;18.27;;;9.90;99.90;;;;;;4918488;29;20024;-75
2023/04/23 01:07:43;;;;;;;27.95;19.60;;;9.90;99.90;;;;;;4935109;29;20140;-78
2023/04/23 01:10:11;;;;;;;29.17;19.48;;;9.90;99.90;;;;;;4935698;29;20468;-78
2023/04/23 01:12:37;;;;;;;26.65;18.80;;;9.80;99.90;;;;;;4935276;29;20039;-76
2023/04/23 01:15:03;;;;;;;29.58;19.35;;;9.80;99.90;;;;;;4918632;29;20019;-74
2023/04/23 01:17:29;;;;;;;30.42;20.63;;;9.70;99.90;;;;;;4935011;29;20102;-77
2023/04/23 01:19:55;;;;;;;29.75;20.58;;;9.70;99.90;;;;;;4918177;29;20476;-77
2023/04/23 01:22:21;;;;;;;27.02;19.42;;;9.60;99.90;;;;;;4918330;29;20146;-74
2023/04/23 01:24:48;;;;;;;28.13;20.02;;;9.60;99.90;;;;;;4935741;29;20432;-74
2023/04/23 01:27:14;;;;;;;28.95;19.02;;;9.50;99.90;;;;;;4934826;29;20031;-75
2023/04/23 01:29:41;;;;;;;30.77;18.00;;;9.50;99.90;;;;;;4918204;29;20083;-76
2023/04/23 01:32:08;;;;;;;28.63;18.48;;;9.50;99.90;;;;;;4916912;29;20094;-75
2023/04/23 01:34:37;;;;;;;23.65;17.33;;;9.50;99.90;;;;;;4935225;29;20043;-75
2023/04/23 01:37:04;;;;;;;28.67;17.33;;;9.50;99.90;;;;;;4917279;29;20060;-72
2023/04/23 01:39:30;;;;;;;26.73;18.85;;;9.50;99.90;;;;;;4935120;29;20024;-75
2023/04/23 01:41:56;;;;;;;26.92;17.58;;;9.50;99.90;;;;;;4934968;29;20027;-72
2023/04/23 01:44:22;;;;;;;30.25;19.52;;;9.40;99.90;;;;;;4935200;29;20073;-77
2023/04/23 01:46:48;;;;;;;30.77;19.55;;;9.50;99.90;;;;;;4934823;29;20020;-76
2023/04/23 01:49:14;;;;;;;30.48;20.08;;;9.50;99.90;;;;;;4934863;29;20024;-77
2023/04/23 01:51:41;;;;;;;27.15;18.35;;;9.30;99.90;;;;;;4917699;29;20032;-74
2023/04/23 01:54:07;;;;;;;30.60;20.02;;;9.30;99.90;;;;;;4917380;29;20059;-72
2023/04/23 01:56:34;;;;;;;29.73;20.58;;;9.30;99.90;;;;;;4934265;29;20076;-77
2023/04/23 01:59:00;;;;;;;32.03;21.77;;;9.30;99.90;;;;;;4917205;29;20035;-76
2023/04/23 02:01:44;;;;;;;36.75;23.63;;;9.30;99.90;;;;;;4897000;29;20043;-74
2023/04/23 02:04:13;;;;;;;32.28;23.08;;;9.30;99.90;;;;;;4917883;29;20118;-72
2023/04/23 02:06:42;;;;;;;32.55;22.95;;;9.30;99.90;;;;;;4934033;29;20048;-72
2023/04/23 02:09:08;;;;;;;34.33;23.38;;;9.30;99.90;;;;;;4906975;29;20120;-72
2023/04/23 02:11:33;;;;;;;47.58;25.20;;;9.20;99.90;;;;;;4915906;29;20435;-72
2023/04/23 02:14:00;;;;;;;36.90;26.05;;;9.20;99.90;;;;;;4917774;29;20043;-73
2023/04/23 02:16:27;;;;;;;38.55;26.65;;;9.20;99.90;;;;;;4934338;29;20448;-73
2023/04/23 02:18:54;;;;;;;37.85;22.90;;;9.20;99.90;;;;;;4934508;29;20035;-72
2023/04/23 02:21:23;;;;;;;32.45;23.98;;;9.10;99.90;;;;;;4917941;29;20403;-77
2023/04/23 02:23:50;;;;;;;35.17;22.30;;;9.10;99.90;;;;;;4917308;29;20046;-73
2023/04/23 02:26:17;;;;;;;31.50;22.23;;;9.10;99.90;;;;;;4916750;29;20467;-72
2023/04/23 02:28:44;;;;;;;32.15;21.27;;;8.90;99.90;;;;;;4917729;29;20368;-74
2023/04/23 02:31:10;;;;;;;35.20;21.42;;;9.00;99.90;;;;;;4934049;29;20475;-74
2023/04/23 02:33:38;;;;;;;32.78;21.05;;;9.00;99.90;;;;;;4934833;29;20031;-72
2023/04/23 02:36:04;;;;;;;32.20;22.67;;;9.00;99.90;;;;;;4916749;29;20035;-73
2023/04/23 02:38:30;;;;;;;32.22;21.67;;;9.00;99.90;;;;;;4925609;29;20044;-78
2023/04/23 02:40:56;;;;;;;29.33;21.23;;;9.10;99.90;;;;;;4933440;29;20283;-75
2023/04/23 02:43:21;;;;;;;28.85;19.42;;;9.00;99.90;;;;;;4934659;29;20505;-73
2023/04/23 02:45:47;;;;;;;32.55;20.88;;;9.00;99.90;;;;;;4933310;29;20024;-77
2023/04/23 02:48:13;;;;;;;29.10;19.70;;;9.10;99.90;;;;;;4934409;29;20028;-77
2023/04/23 02:50:39;;;;;;;31.98;21.40;;;9.10;99.90;;;;;;4921211;29;20036;-75
2023/04/23 02:53:05;;;;;;;38.03;26.42;;;9.10;99.90;;;;;;4917437;29;20031;-74
2023/04/23 02:55:31;;;;;;;39.78;26.67;;;8.70;99.90;;;;;;4929172;29;20035;-78
2023/04/23 02:57:58;;;;;;;43.80;26.48;;;8.80;99.90;;;;;;4901402;29;20381;-72
2023/04/23 03:00:25;;;;;;;41.70;31.23;;;8.80;99.90;;;;;;4919139;29;20024;-76
2023/04/23 03:02:51;;;;;;;45.13;34.03;;;8.80;99.90;;;;;;4924456;29;20031;-76
2023/04/23 03:05:17;;;;;;;39.92;28.95;;;8.80;99.90;;;;;;4917025;29;20370;-72
2023/04/23 03:07:43;;;;;;;38.90;26.77;;;8.60;99.90;;;;;;4916758;29;20399;-73
2023/04/23 03:10:09;;;;;;;36.30;25.35;;;8.50;99.90;;;;;;4916558;29;20483;-74
2023/04/23 03:12:35;;;;;;;34.15;23.23;;;8.50;99.90;;;;;;4934096;29;20107;-72
2023/04/23 03:15:01;;;;;;;44.35;28.92;;;8.40;99.90;;;;;;4934207;29;20107;-76
2023/04/23 03:17:30;;;;;;;45.75;36.42;;;8.30;99.90;;;;;;4919112;29;20123;-76
2023/04/23 03:19:56;;;;;;;72.40;53.72;;;8.40;99.90;;;;;;4920265;29;20032;-73
2023/04/23 03:22:23;;;;;;;31.58;22.50;;;8.10;99.90;;;;;;4920256;29;20551;-74
2023/04/23 03:24:49;;;;;;;29.40;20.27;;;8.10;99.90;;;;;;4920100;29;20036;-77
2023/04/23 03:27:14;;;;;;;31.25;19.85;;;8.20;99.90;;;;;;4920623;29;20035;-75
2023/04/23 03:29:40;;;;;;;31.00;20.45;;;8.20;99.90;;;;;;4904293;29;20131;-74
2023/04/23 03:32:06;;;;;;;35.28;22.38;;;8.20;99.90;;;;;;4904456;29;20067;-73
2023/04/23 03:34:32;;;;;;;29.25;20.58;;;8.20;99.90;;;;;;4920466;29;20054;-74
2023/04/23 03:36:58;;;;;;;23.45;17.17;;;8.30;99.90;;;;;;4937160;29;20027;-73
2023/04/23 03:39:24;;;;;;;26.13;17.38;;;8.30;99.90;;;;;;4919882;29;20496;-74
2023/04/23 03:41:53;;;;;;;27.58;18.15;;;8.40;99.90;;;;;;4919522;29;20075;-75
2023/04/23 03:44:23;;;;;;;24.73;17.77;;;8.50;99.90;;;;;;4905349;29;20054;-76
2023/04/23 03:46:51;;;;;;;25.88;19.25;;;8.40;99.90;;;;;;4919820;29;20059;-74
2023/04/23 03:49:17;;;;;;;30.77;21.88;;;8.40;99.90;;;;;;4920202;29;20122;-77
2023/04/23 03:51:43;;;;;;;29.38;20.48;;;8.40;99.90;;;;;;4903996;29;20032;-77
2023/04/23 03:54:09;;;;;;;28.95;18.90;;;8.40;99.90;;;;;;4919656;29;20027;-77
2023/04/23 03:56:39;;;;;;;33.25;21.35;;;8.40;99.90;;;;;;4919692;29;20514;-78
2023/04/23 03:59:27;;;;;;;27.33;17.48;;;8.40;99.90;;;;;;4919829;29;20677;-77
2023/04/23 04:01:55;;;;;;;28.92;20.38;;;8.40;99.90;;;;;;4919420;29;20047;-77
2023/04/23 04:04:24;;;;;;;44.80;30.83;;;8.40;99.90;;;;;;4936640;29;20035;-77
2023/04/23 04:06:50;;;;;;;68.32;40.90;;;8.50;99.90;;;;;;4892838;29;20056;-77
2023/04/23 04:09:16;;;;;;;50.55;32.22;;;8.60;99.90;;;;;;4894099;29;20076;-75
2023/04/23 04:11:41;;;;;;;29.80;20.00;;;8.70;99.90;;;;;;4917920;29;20055;-76
2023/04/23 04:14:08;;;;;;;21.50;15.10;;;9.20;99.90;;;;;;4884017;29;20091;-74
2023/04/23 04:16:33;;;;;;;20.63;13.85;;;9.60;99.90;;;;;;4917612;29;20028;-76
2023/04/23 04:19:00;;;;;;;21.48;12.35;;;9.90;99.90;;;;;;4917522;29;20131;-77
2023/04/23 04:21:27;;;;;;;18.50;11.27;;;10.50;99.90;;;;;;4917529;29;20098;-74
2023/04/23 04:23:53;;;;;;;28.75;11.32;;;11.20;99.90;;;;;;4900801;29;20126;-74
2023/04/23 04:26:19;;;;;;;18.95;11.60;;;11.70;99.90;;;;;;4916892;29;20028;-76
2023/04/23 04:28:45;;;;;;;18.05;11.50;;;12.20;99.90;;;;;;4917416;29;20035;-76
2023/04/23 04:31:13;;;;;;;17.00;9.75;;;12.80;99.90;;;;;;4916967;29;20020;-73
2023/04/23 04:33:38;;;;;;;18.67;11.40;;;13.20;99.90;;;;;;4917582;29;20025;-75
2023/04/23 04:36:05;;;;;;;17.38;12.00;;;13.00;99.90;;;;;;4916747;29;20449;-76
2023/04/23 04:38:30;;;;;;;20.48;13.07;;;12.80;99.90;;;;;;4917300;29;20071;-71
2023/04/23 04:41:01;;;;;;;25.08;16.63;;;12.60;99.90;;;;;;4917009;29;20075;-72
2023/04/23 04:43:27;;;;;;;19.15;11.80;;;13.40;99.90;;;;;;4916789;29;20040;-74
2023/04/23 04:45:52;;;;;;;17.08;10.88;;;13.50;99.90;;;;;;4904823;29;20024;-76
2023/04/23 04:48:18;;;;;;;17.50;11.48;;;13.40;99.90;;;;;;4903448;29;20488;-77
2023/04/23 04:50:45;;;;;;;18.38;12.25;;;13.30;99.90;;;;;;4923793;29;20024;-75
2023/04/23 04:53:11;;;;;;;20.63;11.38;;;14.50;99.90;;;;;;4916568;29;20040;-75
2023/04/23 04:55:37;;;;;;;21.23;13.00;;;15.50;99.90;;;;;;4917244;29;20020;-74
2023/04/23 04:58:03;;;;;;;19.00;12.10;;;16.20;99.80;;;;;;4916159;29;20036;-74
2023/04/23 05:00:29;;;;;;;18.65;11.48;;;16.70;97.40;;;;;;4916689;29;20028;-75
2023/04/23 05:02:57;;;;;;;20.65;13.48;;;17.20;95.90;;;;;;4916398;29;20440;-76
2023/04/23 05:05:24;;;;;;;18.63;9.52;;;17.50;95.20;;;;;;4916507;29;20541;-75
2023/04/23 05:07:50;;;;;;;16.73;10.25;;;16.80;94.40;;;;;;4931147;29;20102;-75
2023/04/23 05:10:16;;;;;;;18.23;10.25;;;15.80;95.70;;;;;;4923524;29;20028;-74
2023/04/23 05:12:42;;;;;;;16.25;9.95;;;15.10;97.50;;;;;;4935707;29;20551;-75
2023/04/23 05:15:12;;;;;;;16.63;10.13;;;14.30;98.10;;;;;;4918544;29;20379;-75
2023/04/23 05:17:38;;;;;;;17.13;10.27;;;13.80;99.90;;;;;;4934965;29;20051;-74
2023/04/23 05:20:05;;;;;;;18.00;9.80;;;13.80;99.90;;;;;;4934959;29;20059;-75
2023/04/23 05:22:31;;;;;;;18.63;11.27;;;13.50;99.90;;;;;;4918318;29;20031;-76
2023/04/23 05:24:57;;;;;;;16.27;10.88;;;13.70;99.90;;;;;;4935340;29;20028;-73
2023/04/23 05:27:23;;;;;;;16.67;10.40;;;13.50;99.90;;;;;;4935145;29;20024;-75
2023/04/23 05:29:49;;;;;;;16.25;10.98;;;13.50;99.90;;;;;;4934992;29;20034;-73
2023/04/23 05:32:15;;;;;;;19.98;12.38;;;13.50;99.90;;;;;;4931811;29;20032;-75
2023/04/23 05:34:41;;;;;;;21.08;12.07;;;13.20;99.90;;;;;;4920494;29;20512;-73
2023/04/23 05:37:06;;;;;;;22.13;11.45;;;13.40;99.90;;;;;;4935263;29;20091;-76
2023/04/23 05:39:32;;;;;;;21.10;12.07;;;13.30;99.90;;;;;;4934590;29;20111;-75
2023/04/23 05:41:58;;;;;;;21.85;10.80;;;13.30;99.90;;;;;;4927750;29;20020;-74
2023/04/23 05:44:24;;;;;;;21.00;11.30;;;13.60;99.90;;;;;;4924874;29;20088;-75
2023/04/23 05:46:50;;;;;;;21.48;11.57;;;13.80;99.90;;;;;;4932988;29;20075;-74
2023/04/23 05:49:16;;;;;;;23.77;10.63;;;13.70;99.90;;;;;;4923201;29;20021;-73
2023/04/23 05:51:42;;;;;;;18.73;11.02;;;13.90;99.90;;;;;;4911141;29;20032;-76
2023/04/23 05:54:07;;;;;;;18.75;11.02;;;13.60;99.90;;;;;;4921024;29;20106;-72
2023/04/23 05:56:33;;;;;;;18.40;9.85;;;14.00;99.90;;;;;;4923626;29;20028;-73
2023/04/23 05:58:59;;;;;;;22.52;10.90;;;14.40;99.90;;;;;;4933798;29;20048;-73
2023/04/23 06:01:25;;;;;;;17.48;10.27;;;14.80;99.90;;;;;;4922946;29;20475;-74
2023/04/23 06:03:51;;;;;;;16.83;11.00;;;14.90;99.90;;;;;;4924447;29;20107;-72
2023/04/23 06:06:16;;;;;;;20.40;10.80;;;14.90;99.90;;;;;;4928521;29;20047;-75
2023/04/23 06:08:42;;;;;;;21.63;11.18;;;14.90;99.90;;;;;;4926157;29;20055;-76
2023/04/23 06:11:08;;;;;;;19.63;12.45;;;14.90;99.90;;;;;;4905351;29;20531;-75
2023/04/23 06:13:39;;;;;;;17.80;11.40;;;15.00;99.90;;;;;;4921891;29;20031;-74
2023/04/23 06:16:07;;;;;;;18.67;10.82;;;15.40;99.90;;;;;;4921605;29;20047;-72
2023/04/23 06:18:33;;;;;;;21.70;11.98;;;15.30;99.90;;;;;;4927446;29;20039;-74
2023/04/23 06:21:03;;;;;;;19.42;10.93;;;15.40;99.90;;;;;;4928122;29;20471;-73
2023/04/23 06:23:30;;;;;;;21.77;12.07;;;15.40;99.90;;;;;;4906852;29;20023;-76
2023/04/23 06:25:55;;;;;;;22.75;11.32;;;15.40;99.90;;;;;;4921908;29;20035;-77
2023/04/23 06:28:21;;;;;;;19.10;11.90;;;15.20;99.90;;;;;;4908119;29;20036;-75
2023/04/23 06:31:07;;;;;;;20.30;10.80;;;15.50;99.90;;;;;;4928038;29;20395;-74
2023/04/23 06:33:35;;;;;;;17.80;11.20;;;15.60;99.90;;;;;;4910110;29;20028;-74
2023/04/23 06:36:02;;;;;;;17.33;10.25;;;16.10;99.90;;;;;;4925078;29;20031;-74
2023/04/23 06:38:28;;;;;;;21.02;11.88;;;16.50;99.90;;;;;;4921835;29;20451;-76
2023/04/23 06:40:54;;;;;;;22.23;11.40;;;16.80;99.90;;;;;;4908368;29;20029;-75
2023/04/23 06:43:20;;;;;;;20.52;10.40;;;16.90;99.90;;;;;;4929686;29;20028;-77
2023/04/23 06:46:06;;;;;;;18.48;10.85;;;16.90;98.50;;;;;;4901766;29;20068;-75
2023/04/23 06:48:32;;;;;;;16.63;10.20;;;16.80;99.10;;;;;;4915621;29;20075;-74
2023/04/23 06:50:58;;;;;;;17.35;9.75;;;16.20;97.90;;;;;;4915275;29;20030;-74
2023/04/23 06:53:24;;;;;;;16.33;10.25;;;16.30;98.80;;;;;;4918535;29;20146;-80
2023/04/23 06:55:50;;;;;;;17.33;10.77;;;16.70;99.90;;;;;;4926311;29;20031;-75
2023/04/23 06:58:17;;;;;;;18.85;10.73;;;16.60;97.00;;;;;;4926829;29;20075;-73
2023/04/23 07:00:43;;;;;;;17.20;11.38;;;16.70;99.40;;;;;;4919074;29;20020;-76
2023/04/23 07:03:09;;;;;;;16.73;10.38;;;16.90;98.30;;;;;;4908551;29;20032;-75
2023/04/23 07:05:36;;;;;;;16.75;10.18;;;17.20;98.50;;;;;;4926901;29;20071;-74
2023/04/23 07:08:01;;;;;;;18.92;10.38;;;17.50;97.30;;;;;;4901681;29;20418;-72
2023/04/23 07:10:28;;;;;;;23.08;10.60;;;17.70;97.30;;;;;;4922150;29;20024;-75
2023/04/23 07:12:53;;;;;;;19.33;10.18;;;16.90;96.80;;;;;;4913222;29;20476;-73
2023/04/23 07:15:19;;;;;;;19.45;9.95;;;17.10;97.50;;;;;;4926658;29;20024;-74
2023/04/23 07:17:45;;;;;;;17.33;10.15;;;17.60;97.30;;;;;;4922747;29;20047;-75
2023/04/23 07:20:11;;;;;;;22.40;10.63;;;17.80;97.50;;;;;;4918826;29;20103;-75
2023/04/23 07:22:37;;;;;;;18.92;10.98;;;18.10;96.40;;;;;;4928207;29;20131;-74
2023/04/23 07:25:04;;;;;;;20.33;10.18;;;18.00;97.40;;;;;;4918287;29;20024;-76
2023/04/23 07:27:30;;;;;;;19.88;10.30;;;18.30;96.60;;;;;;4902337;29;20106;-74
2023/04/23 07:29:56;;;;;;;18.83;10.95;;;18.20;95.40;;;;;;4918538;29;20111;-74
2023/04/23 07:32:24;;;;;;;19.23;10.00;;;17.70;95.10;;;;;;4918126;29;20088;-76
2023/04/23 07:34:51;;;;;;;17.05;10.45;;;17.50;95.10;;;;;;4908813;29;20035;-75
2023/04/23 07:37:17;;;;;;;18.88;10.68;;;18.00;97.10;;;;;;4932981;29;20036;-76
2023/04/23 07:39:42;;;;;;;16.98;9.85;;;17.80;95.60;;;;;;4921513;29;20107;-76
2023/04/23 07:42:08;;;;;;;16.65;9.45;;;18.30;95.50;;;;;;4925904;29;20087;-75
2023/04/23 07:44:35;;;;;;;17.80;9.32;;;18.20;95.00;;;;;;4917196;23;20071;-76
2023/04/23 07:47:00;;;;;;;15.02;9.00;;;18.60;94.30;;;;;;4903284;29;20385;-74
2023/04/23 07:49:27;;;;;;;15.77;9.77;;;18.00;93.80;;;;;;4881759;29;20033;-75
2023/04/23 07:51:53;;;;;;;20.70;10.43;;;18.50;96.40;;;;;;4890697;29;20407;-76
2023/04/23 07:54:19;;;;;;;16.42;9.27;;;19.00;95.10;;;;;;4907012;29;20031;-77
2023/04/23 07:56:45;;;;;;;17.75;10.48;;;19.30;93.40;;;;;;4903628;29;20032;-76
2023/04/23 07:59:17;;;;;;;21.42;10.60;;;18.70;94.30;;;;;;4908128;29;20357;-75
2023/04/23 08:01:43;;;;;;;16.73;9.65;;;18.70;94.80;;;;;;4914039;29;20032;-77
2023/04/23 08:04:10;;;;;;;15.75;9.40;;;19.40;95.00;;;;;;4917488;29;20383;-74
2023/04/23 08:06:36;;;;;;;19.38;10.27;;;19.80;94.00;;;;;;4914622;29;20028;-74
2023/04/23 08:09:05;;;;;;;17.52;9.90;;;19.90;93.00;;;;;;4917038;29;20093;-77
2023/04/23 08:11:32;;;;;;;17.35;10.07;;;19.70;93.10;;;;;;4917549;29;20036;-74
2023/04/23 08:13:57;;;;;;;19.95;10.55;;;19.50;94.20;;;;;;4917490;29;20036;-72
2023/04/23 08:16:24;;;;;;;15.05;9.80;;;19.60;92.20;;;;;;4917519;29;20035;-75
2023/04/23 08:18:49;;;;;;;18.55;10.48;;;19.70;93.80;;;;;;4911174;29;20044;-76
2023/04/23 08:21:15;;;;;;;21.20;10.50;;;19.80;93.50;;;;;;4881543;29;20051;-77
2023/04/23 08:23:41;;;;;;;17.40;10.73;;;19.80;93.40;;;;;;4902160;29;20033;-75
2023/04/23 08:26:07;;;;;;;17.85;10.57;;;20.00;94.10;;;;;;4917379;29;20025;-75
2023/04/23 08:28:33;;;;;;;19.67;10.32;;;20.40;93.80;;;;;;4917009;29;20087;-77
2023/04/23 08:30:59;;;;;;;19.65;12.23;;;20.00;93.20;;;;;;4916952;29;20365;-77
2023/04/23 08:33:25;;;;;;;16.55;10.50;;;19.90;92.20;;;;;;4916713;29;20094;-76
2023/04/23 08:35:51;;;;;;;15.70;10.18;;;20.10;90.80;;;;;;4917245;29;20060;-76
2023/04/23 08:38:17;;;;;;;20.35;11.05;;;20.50;91.90;;;;;;4932267;29;20040;-78
2023/04/23 08:40:45;;;;;;;20.85;10.43;;;19.80;91.50;;;;;;4922753;29;20027;-76
2023/04/23 08:43:20;;;;;;;19.77;10.30;;;19.40;91.80;;;;;;4924100;29;20044;-74
2023/04/23 08:45:47;;;;;;;16.90;10.45;;;19.70;91.20;;;;;;4917114;29;20450;-75
2023/04/23 08:48:13;;;;;;;17.13;11.02;;;20.10;91.10;;;;;;4916832;29;20028;-77
2023/04/23 08:50:42;;;;;;;19.75;11.13;;;20.40;92.30;;;;;;4920809;29;20071;-77
2023/04/23 08:53:08;;;;;;;21.83;10.85;;;20.60;90.20;;;;;;4896746;29;20028;-76
2023/04/23 08:55:35;;;;;;;18.13;10.60;;;20.60;90.00;;;;;;4907387;29;20366;-76
2023/04/23 08:58:02;;;;;;;17.38;10.30;;;21.00;90.80;;;;;;4914659;29;20048;-75
2023/04/23 09:00:28;;;;;;;15.90;8.60;;;21.20;91.10;;;;;;4900266;29;20108;-75
2023/04/23 09:02:55;;;;;;;16.88;8.98;;;21.00;88.50;;;;;;4899109;29;20537;-76
2023/04/23 09:05:21;;;;;;;20.05;9.82;;;21.00;85.50;;;;;;4884878;29;20064;-75
2023/04/23 09:07:47;;;;;;;19.42;9.18;;;21.30;89.50;;;;;;4909505;29;20107;-75
2023/04/23 09:10:13;;;;;;;13.88;7.43;;;21.30;87.40;;;;;;4910971;29;20040;-74
2023/04/23 09:12:41;;;;;;;19.20;7.97;;;21.30;85.20;;;;;;4909284;29;20032;-76
2023/04/23 09:15:11;;;;;;;14.15;6.90;;;21.40;88.60;;;;;;4888511;29;20055;-76
2023/04/23 09:17:39;;;;;;;14.63;8.68;;;21.60;90.40;;;;;;4904720;29;20048;-75
2023/04/23 09:20:08;;;;;;;14.70;7.85;;;21.40;90.60;;;;;;4904169;29;20064;-73
2023/04/23 09:22:41;;;;;;;17.27;7.80;;;21.80;88.50;;;;;;4898242;29;20055;-73
2023/04/23 09:25:09;;;;;;;19.85;8.75;;;21.80;88.80;;;;;;4909884;29;20384;-73
2023/04/23 09:27:35;;;;;;;11.43;6.60;;;21.80;88.50;;;;;;4911122;29;20545;-75
2023/04/23 09:30:06;;;;;;;14.35;7.07;;;21.90;85.60;;;;;;4910965;29;20060;-76
2023/04/23 09:32:34;;;;;;;15.13;7.70;;;22.10;86.30;;;;;;4916354;29;20036;-74
2023/04/23 09:35:03;;;;;;;12.48;6.55;;;22.00;84.30;;;;;;4898932;29;20084;-76
2023/04/23 09:37:29;;;;;;;18.15;8.45;;;22.00;82.60;;;;;;4915643;29;20131;-74
2023/04/23 09:40:03;;;;;;;11.55;5.78;;;22.30;87.30;;;;;;4915519;29;20020;-74
2023/04/23 09:42:38;;;;;;;16.48;8.20;;;22.40;84.90;;;;;;4900075;29;20047;-74
2023/04/23 09:45:06;;;;;;;16.13;6.55;;;22.40;80.40;;;;;;4915923;29;20048;-77
2023/04/23 09:47:33;;;;;;;16.15;6.97;;;22.40;82.90;;;;;;4915687;29;20063;-75
2023/04/23 09:50:00;;;;;;;24.35;11.55;;;22.20;84.50;;;;;;4916349;29;20475;-73
2023/04/23 09:52:27;;;;;;;13.85;5.88;;;22.40;83.00;;;;;;4916751;29;20028;-73
2023/04/23 09:54:56;;;;;;;19.27;7.53;;;22.30;79.50;;;;;;4915907;29;20032;-76
2023/04/23 09:57:25;;;;;;;14.98;6.70;;;22.50;82.10;;;;;;4915647;29;20040;-73
2023/04/23 09:59:57;;;;;;;30.63;9.68;;;22.70;86.10;;;;;;4915735;29;20166;-76
2023/04/23 10:02:32;;;;;;;14.30;6.47;;;22.80;81.30;;;;;;4915726;29;20107;-73
2023/04/23 10:04:58;;;;;;;15.55;5.60;;;22.70;80.00;;;;;;4915721;29;20035;-74
2023/04/23 10:07:24;;;;;;;10.98;5.53;;;22.80;83.70;;;;;;4915536;29;20024;-74
2023/04/23 10:09:50;;;;;;;13.90;6.00;;;22.90;82.90;;;;;;4915331;29;20036;-73
2023/04/23 10:12:16;;;;;;;16.13;7.55;;;23.00;81.00;;;;;;4914654;29;20148;-74
2023/04/23 10:14:44;;;;;;;12.55;6.00;;;23.00;81.40;;;;;;4915751;29;20528;-76
2023/04/23 10:17:11;;;;;;;9.45;5.90;;;23.00;80.30;;;;;;4915523;29;20032;-76
2023/04/23 10:19:39;;;;;;;20.30;7.18;;;22.70;80.90;;;;;;4915228;29;20028;-76
2023/04/23 10:22:08;;;;;;;9.43;5.13;;;23.00;79.80;;;;;;4915606;29;20028;-74
2023/04/23 10:24:40;;;;;;;21.98;5.35;;;23.10;80.60;;;;;;4915252;29;20107;-73
2023/04/23 10:27:10;;;;;;;10.63;5.55;;;23.10;79.50;;;;;;4918559;29;20484;-75
2023/04/23 10:29:38;;;;;;;11.52;5.95;;;22.90;78.80;;;;;;4919452;29;20179;-73
2023/04/23 10:32:08;;;;;;;10.15;5.45;;;23.00;78.50;;;;;;4919548;29;20384;-76
2023/04/23 10:34:44;;;;;;;11.25;5.30;;;22.40;76.70;;;;;;4916189;29;20050;-72
2023/04/23 10:37:11;;;;;;;22.25;8.25;;;22.70;78.40;;;;;;4907413;29;20063;-73
2023/04/23 10:39:37;;;;;;;16.25;6.63;;;22.90;78.90;;;;;;4919062;29;20114;-76
2023/04/23 10:42:04;;;;;;;12.93;5.18;;;23.10;77.70;;;;;;4919099;29;20044;-76
2023/04/23 10:44:37;;;;;;;10.65;5.43;;;23.00;74.70;;;;;;4918866;29;20052;-74
2023/04/23 10:47:05;;;;;;;7.13;4.60;;;22.80;76.90;;;;;;4919023;29;20111;-76
2023/04/23 10:49:32;;;;;;;8.80;5.00;;;22.90;75.70;;;;;;4919226;29;20032;-75
2023/04/23 10:52:02;;;;;;;9.02;4.90;;;22.90;73.70;;;;;;4918543;29;20028;-75
2023/04/23 10:54:32;;;;;;;10.90;4.85;;;22.90;76.40;;;;;;4918947;29;20391;-76
2023/04/23 10:57:01;;;;;;;8.85;4.45;;;22.90;73.40;;;;;;4918985;29;20480;-74
2023/04/23 10:59:29;;;;;;;8.32;4.60;;;22.80;78.00;;;;;;4918835;29;20031;-75
2023/04/23 11:01:59;;;;;;;10.00;4.72;;;22.90;76.20;;;;;;4918770;29;20029;-75
2023/04/23 11:04:27;;;;;;;11.73;5.57;;;22.90;75.40;;;;;;4918476;29;20099;-73
2023/04/23 11:06:59;;;;;;;11.10;4.78;;;23.00;79.30;;;;;;4918896;29;20060;-73
2023/04/23 11:09:31;;;;;;;11.57;5.05;;;22.80;74.20;;;;;;4918081;29;20042;-76
2023/04/23 11:11:58;;;;;;;8.43;4.60;;;23.00;77.90;;;;;;4918593;29;20480;-75
2023/04/23 11:14:40;;;;;;;7.75;3.92;;;23.10;78.70;;;;;;4917274;29;20064;-75
2023/04/23 11:17:06;;;;;;;6.63;3.88;;;23.00;72.90;;;;;;4917976;29;20027;-77
2023/04/23 11:19:39;;;;;;;8.07;4.32;;;23.20;73.60;;;;;;4917682;29;20032;-75
2023/04/23 11:22:13;;;;;;;9.23;4.40;;;23.10;77.20;;;;;;4899229;29;20024;-75
2023/04/23 11:24:41;;;;;;;8.50;4.75;;;22.90;77.30;;;;;;4888906;29;20052;-75
2023/04/23 11:27:08;;;;;;;7.45;4.53;;;22.80;76.80;;;;;;4913735;29;20448;-74
2023/04/23 11:29:36;;;;;;;6.55;4.57;;;22.90;78.30;;;;;;4913556;29;20027;-74
2023/04/23 11:32:04;;;;;;;8.88;5.07;;;22.70;75.50;;;;;;4910749;29;20035;-76
2023/04/23 11:34:31;;;;;;;7.22;3.80;;;22.80;78.80;;;;;;4917761;29;20468;-74
2023/04/23 11:36:59;;;;;;;11.15;5.18;;;23.00;80.60;;;;;;4917877;29;20504;-73
2023/04/23 11:39:26;;;;;;;5.90;3.15;;;23.00;79.20;;;;;;4917649;29;20048;-74
2023/04/23 11:41:52;;;;;;;7.75;4.22;;;22.80;75.50;;;;;;4917518;29;20046;-75
2023/04/23 11:44:21;;;;;;;6.20;3.65;;;22.80;74.90;;;;;;4904772;29;20507;-75
2023/04/23 11:46:48;;;;;;;11.30;3.67;;;22.90;73.50;;;;;;4918386;29;20032;-74
2023/04/23 11:49:15;;;;;;;10.90;4.70;;;23.00;77.40;;;;;;4917944;29;20032;-75
2023/04/23 11:51:43;;;;;;;5.97;2.75;;;22.90;71.80;;;;;;4917748;29;20396;-73
2023/04/23 11:54:12;;;;;;;6.13;3.60;;;22.90;73.90;;;;;;4917391;29;20064;-75
2023/04/23 11:56:38;;;;;;;7.45;4.55;;;22.80;74.30;;;;;;4899455;29;20040;-75
2023/04/23 11:59:05;;;;;;;9.65;4.32;;;22.80;75.80;;;;;;4917479;29;20080;-77
2023/04/23 12:01:43;;;;;;;7.57;3.85;;;22.90;73.60;;;;;;4917425;29;20155;-73
2023/04/23 12:04:11;;;;;;;8.20;4.55;;;23.00;77.90;;;;;;4909271;29;20151;-77
2023/04/23 12:06:39;;;;;;;10.38;3.83;;;23.00;76.80;;;;;;4903219;29;20392;-75
2023/04/23 12:09:05;;;;;;;7.80;3.97;;;23.00;74.70;;;;;;4897367;29;20362;-73
2023/04/23 12:11:31;;;;;;;8.00;3.67;;;22.90;82.20;;;;;;4897289;29;20025;-74
2023/04/23 12:13:57;;;;;;;9.55;4.22;;;23.00;78.70;;;;;;4897173;29;20083;-75
2023/04/23 12:16:40;;;;;;;7.75;4.40;;;23.10;78.70;;;;;;4901339;29;20028;-75
2023/04/23 12:19:15;;;;;;;10.30;3.85;;;23.00;78.20;;;;;;4917202;29;20040;-74
2023/04/23 12:21:58;;;;;;;7.75;3.97;;;23.00;75.40;;;;;;4903591;29;20330;-74
2023/04/23 12:24:27;;;;;;;11.13;4.70;;;23.10;81.10;;;;;;4906233;29;20024;-76
2023/04/23 12:26:59;;;;;;;12.73;4.43;;;23.00;77.50;;;;;;4900231;29;20043;-76
2023/04/23 12:29:25;;;;;;;8.35;3.92;;;23.00;78.10;;;;;;4917059;29;20067;-74
2023/04/23 12:31:52;;;;;;;5.70;3.25;;;23.10;78.00;;;;;;4917370;29;20029;-74
2023/04/23 12:34:20;;;;;;;8.68;4.28;;;22.90;78.90;;;;;;4917171;29;20473;-74
2023/04/23 12:36:51;;;;;;;10.38;3.45;;;23.00;79.10;;;;;;4917203;29;20024;-76